sensor_id;sensor_type;location;lat;lon;timestamp;pressure;altitude;pressure_sealevel;temperature;humidity
76374;BME280;65197;50.164;8.012;2023-04-02T00:04:44;94624.13;;;5.28;100.00
76374;BME280;65197;50.164;8.012;2023-04-02T00:07:30;94626.59;;;5.30;100.00
76374;BME280;65197;50.164;8.012;2023-04-02T00:09:57;94625.22;;;5.23;100.00
76374;BME280;65197;50.164;8.012;2023-04-02T00:12:22;94626.84;;;5.24;100.00
76374;BME280;65197;50.164;8.012;2023-04-02T00:14:53;94635.19;;;5.26;100.00
76374;BME280;65197;50.164;8.012;2023-04-02T00:17:22;94632.63;;;5.27;100.00
76374;BME280;65197;50.164;8.012;2023-04-02T00:19:53;94633.56;;;5.25;100.00
76374;BME280;65197;50.164;8.012;2023-04-02T00:22:25;94645.28;;;5.26;100.00
76374;BME280;65197;50.164;8.012;2023-04-02T00:24:53;94636.25;;;5.20;100.00
76374;BME280;65197;50.164;8.012;2023-04-02T00:27:19;94650.34;;;5.26;100.00
76374;BME280;65197;50.164;8.012;2023-04-02T00:29:53;94647.00;;;5.25;100.00
76374;BME280;65197;50.164;8.012;2023-04-02T00:32:36;94637.16;;;5.19;100.00
76374;BME280;65197;50.164;8.012;2023-04-02T00:35:03;94651.16;;;5.26;100.00
76374;BME280;65197;50.164;8.012;2023-04-02T00:37:35;94649.59;;;5.24;100.00
76374;BME280;65197;50.164;8.012;2023-04-02T00:42:39;94647.19;;;5.21;100.00
76374;BME280;65197;50.164;8.012;2023-04-02T00:45:09;94648.81;;;5.22;100.00
76374;BME280;65197;50.164;8.012;2023-04-02T00:47:43;94652.41;;;5.18;100.00
76374;BME280;65197;50.164;8.012;2023-04-02T00:52:37;94659.72;;;5.24;100.00
76374;BME280;65197;50.164;8.012;2023-04-02T00:55:23;94651.44;;;5.20;100.00
76374;BME280;65197;50.164;8.012;2023-04-02T00:57:50;94651.69;;;5.14;100.00
76374;BME280;65197;50.164;8.012;2023-04-02T01:00:42;94664.00;;;5.22;100.00
76374;BME280;65197;50.164;8.012;2023-04-02T01:05:41;94659.47;;;5.09;100.00
76374;BME280;65197;50.164;8.012;2023-04-02T01:08:43;94660.34;;;5.08;100.00
76374;BME280;65197;50.164;8.012;2023-04-02T01:11:27;94670.38;;;5.10;100.00
76374;BME280;65197;50.164;8.012;2023-04-02T01:14:31;94668.88;;;5.06;100.00
76374;BME280;65197;50.164;8.012;2023-04-02T01:25:30;94667.00;;;4.89;100.00
76374;BME280;65197;50.164;8.012;2023-04-02T01:28:05;94691.91;;;4.98;100.00
76374;BME280;65197;50.164;8.012;2023-04-02T01:30:34;94695.06;;;5.03;100.00
76374;BME280;65197;50.164;8.012;2023-04-02T01:33:01;94693.44;;;5.02;100.00
76374;BME280;65197;50.164;8.012;2023-04-02T01:35:29;94694.94;;;5.06;100.00
76374;BME280;65197;50.164;8.012;2023-04-02T01:38:25;94693.31;;;5.05;100.00
76374;BME280;65197;50.164;8.012;2023-04-02T01:41:01;94693.56;;;4.99;100.00
76374;BME280;65197;50.164;8.012;2023-04-02T01:43:40;94692.78;;;4.97;100.00
76374;BME280;65197;50.164;8.012;2023-04-02T01:46:31;94705.31;;;5.00;100.00
76374;BME280;65197;50.164;8.012;2023-04-02T01:49:00;94697.84;;;4.97;100.00
76374;BME280;65197;50.164;8.012;2023-04-02T01:51:30;94708.59;;;5.02;100.00
76374;BME280;65197;50.164;8.012;2023-04-02T01:53:58;94704.44;;;5.01;100.00
76374;BME280;65197;50.164;8.012;2023-04-02T01:56:25;94711.91;;;5.04;100.00
76374;BME280;65197;50.164;8.012;2023-04-02T01:58:51;94704.44;;;5.01;100.00
76374;BME280;65197;50.164;8.012;2023-04-02T02:01:18;94706.31;;;4.96;100.00
76374;BME280;65197;50.164;8.012;2023-04-02T02:03:45;94717.31;;;4.95;100.00
76374;BME280;65197;50.164;8.012;2023-04-02T02:06:13;94726.59;;;4.95;100.00
76374;BME280;65197;50.164;8.012;2023-04-02T02:08:46;94728.28;;;4.94;100.00
76374;BME280;65197;50.164;8.012;2023-04-02T02:11:16;94725.88;;;4.91;100.00
76374;BME280;65197;50.164;8.012;2023-04-02T02:13:47;94730.22;;;4.88;100.00
76374;BME280;65197;50.164;8.012;2023-04-02T02:16:15;94730.13;;;4.91;100.00
76374;BME280;65197;50.164;8.012;2023-04-02T02:18:43;94717.53;;;4.89;100.00
76374;BME280;65197;50.164;8.012;2023-04-02T02:21:17;94734.47;;;4.87;100.00
76374;BME280;65197;50.164;8.012;2023-04-02T02:23:47;94732.94;;;4.83;100.00
76374;BME280;65197;50.164;8.012;2023-04-02T02:26:13;94728.00;;;4.80;100.00
76374;BME280;65197;50.164;8.012;2023-04-02T02:28:41;94745.31;;;4.89;100.00
76374;BME280;65197;50.164;8.012;2023-04-02T02:31:20;94747.84;;;4.89;100.00
76374;BME280;65197;50.164;8.012;2023-04-02T02:33:56;94744.03;;;4.79;100.00
76374;BME280;65197;50.164;8.012;2023-04-02T02:36:46;94760.78;;;4.81;100.00
76374;BME280;65197;50.164;8.012;2023-04-02T02:39:18;94761.72;;;4.79;100.00
76374;BME280;65197;50.164;8.012;2023-04-02T02:41:51;94769.13;;;4.83;100.00
76374;BME280;65197;50.164;8.012;2023-04-02T02:44:24;94761.81;;;4.76;100.00
76374;BME280;65197;50.164;8.012;2023-04-02T02:46:52;94766.66;;;4.82;100.00
76374;BME280;65197;50.164;8.012;2023-04-02T02:49:25;94765.88;;;4.80;100.00
76374;BME280;65197;50.164;8.012;2023-04-02T02:52:02;94773.47;;;4.80;100.00
76374;BME280;65197;50.164;8.012;2023-04-02T02:54:31;94763.59;;;4.74;100.00
76374;BME280;65197;50.164;8.012;2023-04-02T02:57:06;94782.81;;;4.78;100.00
76374;BME280;65197;50.164;8.012;2023-04-02T02:59:32;94778.00;;;4.72;100.00
76374;BME280;65197;50.164;8.012;2023-04-02T03:01:59;94790.38;;;4.78;100.00
76374;BME280;65197;50.164;8.012;2023-04-02T03:04:26;94785.44;;;4.75;100.00
76374;BME280;65197;50.164;8.012;2023-04-02T03:06:56;94798.84;;;4.77;100.00
76374;BME280;65197;50.164;8.012;2023-04-02T03:12:43;94801.66;;;4.69;100.00
76374;BME280;65197;50.164;8.012;2023-04-02T03:17:54;94807.75;;;4.64;100.00
76374;BME280;65197;50.164;8.012;2023-04-02T03:20:32;94799.53;;;4.58;100.00
76374;BME280;65197;50.164;8.012;2023-04-02T03:23:21;94819.25;;;4.71;100.00
76374;BME280;65197;50.164;8.012;2023-04-02T03:25:58;94819.25;;;4.71;100.00
76374;BME280;65197;50.164;8.012;2023-04-02T03:28:46;94820.81;;;4.75;100.00
76374;BME280;65197;50.164;8.012;2023-04-02T03:31:29;94832.53;;;4.76;100.00
76374;BME280;65197;50.164;8.012;2023-04-02T03:34:00;94830.78;;;4.78;100.00
76374;BME280;65197;50.164;8.012;2023-04-02T03:36:41;94824.22;;;4.74;100.00
76374;BME280;65197;50.164;8.012;2023-04-02T03:39:22;94835.94;;;4.75;100.00
76374;BME280;65197;50.164;8.012;2023-04-02T03:44:51;94843.31;;;4.81;100.00
76374;BME280;65197;50.164;8.012;2023-04-02T03:47:27;94847.50;;;4.82;100.00
76374;BME280;65197;50.164;8.012;2023-04-02T03:50:05;94843.31;;;4.81;100.00
76374;BME280;65197;50.164;8.012;2023-04-02T03:52:34;94851.50;;;4.88;100.00
76374;BME280;65197;50.164;8.012;2023-04-02T03:55:02;94852.31;;;4.88;100.00
76374;BME280;65197;50.164;8.012;2023-04-02T03:57:37;94862.19;;;4.94;100.00
76374;BME280;65197;50.164;8.012;2023-04-02T04:00:13;94864.06;;;4.89;100.00
76374;BME280;65197;50.164;8.012;2023-04-02T04:02:46;94870.00;;;4.88;100.00
76374;BME280;65197;50.164;8.012;2023-04-02T04:05:21;94876.50;;;4.94;100.00
76374;BME280;65197;50.164;8.012;2023-04-02T04:07:51;94880.03;;;4.90;100.00
76374;BME280;65197;50.164;8.012;2023-04-02T04:10:18;94891.56;;;4.97;100.00
76374;BME280;65197;50.164;8.012;2023-04-02T04:12:47;94879.09;;;4.92;100.00
76374;BME280;65197;50.164;8.012;2023-04-02T04:17:53;94900.84;;;4.96;100.00
76374;BME280;65197;50.164;8.012;2023-04-02T04:20:49;94894.91;;;4.97;100.00
76374;BME280;65197;50.164;8.012;2023-04-02T04:23:31;94907.56;;;4.97;100.00
76374;BME280;65197;50.164;8.012;2023-04-02T04:26:06;94909.19;;;4.98;100.00
76374;BME280;65197;50.164;8.012;2023-04-02T04:31:45;94894.50;;;4.86;100.00
76374;BME280;65197;50.164;8.012;2023-04-02T04:34:17;94920.28;;;4.94;100.00
76374;BME280;65197;50.164;8.012;2023-04-02T04:36:50;94909.53;;;4.89;100.00
76374;BME280;65197;50.164;8.012;2023-04-02T04:39:25;94931.19;;;4.96;100.00
76374;BME280;65197;50.164;8.012;2023-04-02T04:41:54;94921.16;;;4.93;100.00
76374;BME280;65197;50.164;8.012;2023-04-02T04:44:23;94929.53;;;4.95;100.00
76374;BME280;65197;50.164;8.012;2023-04-02T04:47:02;94930.38;;;4.94;100.00
76374;BME280;65197;50.164;8.012;2023-04-02T04:49:37;94929.88;;;4.86;100.00
76374;BME280;65197;50.164;8.012;2023-04-02T04:52:15;94940.56;;;4.93;100.00
76374;BME280;65197;50.164;8.012;2023-04-02T04:54:44;94943.00;;;4.96;100.00
76374;BME280;65197;50.164;8.012;2023-04-02T04:57:30;94953.13;;;4.94;100.00
76374;BME280;65197;50.164;8.012;2023-04-02T05:03:12;94959.72;;;4.98;100.00
76374;BME280;65197;50.164;8.012;2023-04-02T05:05:41;94968.09;;;5.00;100.00
76374;BME280;65197;50.164;8.012;2023-04-02T05:08:19;94952.47;;;4.89;100.00
76374;BME280;65197;50.164;8.012;2023-04-02T05:10:53;94962.38;;;4.95;100.00
76374;BME280;65197;50.164;8.012;2023-04-02T05:13:24;94969.97;;;4.95;100.00
76374;BME280;65197;50.164;8.012;2023-04-02T05:16:14;94979.94;;;4.98;100.00
76374;BME280;65197;50.164;8.012;2023-04-02T05:18:50;94975.00;;;4.95;100.00
76374;BME280;65197;50.164;8.012;2023-04-02T05:21:22;94983.44;;;4.94;100.00
76374;BME280;65197;50.164;8.012;2023-04-02T05:24:30;94996.78;;;4.99;100.00
76374;BME280;65197;50.164;8.012;2023-04-02T05:26:46;94994.28;;;4.98;100.00
76374;BME280;65197;50.164;8.012;2023-04-02T05:29:24;94993.53;;;4.96;100.00
76374;BME280;65197;50.164;8.012;2023-04-02T05:32:01;94998.41;;;5.00;100.00
76374;BME280;65197;50.164;8.012;2023-04-02T05:34:34;95001.81;;;4.99;100.00
76374;BME280;65197;50.164;8.012;2023-04-02T05:37:02;95000.97;;;4.99;100.00
76374;BME280;65197;50.164;8.012;2023-04-02T05:39:27;95010.16;;;5.01;100.00
76374;BME280;65197;50.164;8.012;2023-04-02T05:42:05;95011.06;;;4.99;100.00
76374;BME280;65197;50.164;8.012;2023-04-02T05:44:36;95016.97;;;4.99;100.00
76374;BME280;65197;50.164;8.012;2023-04-02T05:47:12;95026.16;;;5.02;100.00
76374;BME280;65197;50.164;8.012;2023-04-02T05:49:48;95022.78;;;5.01;100.00
76374;BME280;65197;50.164;8.012;2023-04-02T05:52:22;95028.59;;;5.03;100.00
76374;BME280;65197;50.164;8.012;2023-04-02T05:57:42;95034.66;;;4.99;100.00
76374;BME280;65197;50.164;8.012;2023-04-02T06:03:01;95031.50;;;4.93;100.00
76374;BME280;65197;50.164;8.012;2023-04-02T06:05:35;95043.91;;;5.00;100.00
76374;BME280;65197;50.164;8.012;2023-04-02T06:08:10;95056.22;;;5.09;100.00
76374;BME280;65197;50.164;8.012;2023-04-02T06:10:46;95049.69;;;5.04;100.00
76374;BME280;65197;50.164;8.012;2023-04-02T06:13:17;95060.59;;;5.04;100.00
76374;BME280;65197;50.164;8.012;2023-04-02T06:15:43;95054.97;;;4.96;100.00
76374;BME280;65197;50.164;8.012;2023-04-02T06:18:30;95079.16;;;5.03;100.00
76374;BME280;65197;50.164;8.012;2023-04-02T06:20:57;95070.03;;;4.99;100.00
76374;BME280;65197;50.164;8.012;2023-04-02T06:23:24;95088.72;;;4.95;100.00
76374;BME280;65197;50.164;8.012;2023-04-02T06:29:05;95097.88;;;4.73;100.00
76374;BME280;65197;50.164;8.012;2023-04-02T06:31:53;95107.38;;;4.65;100.00
76374;BME280;65197;50.164;8.012;2023-04-02T06:34:21;95102.72;;;4.52;100.00
76374;BME280;65197;50.164;8.012;2023-04-02T06:36:48;95116.50;;;4.42;100.00
76374;BME280;65197;50.164;8.012;2023-04-02T06:39:20;95125.22;;;4.32;100.00
76374;BME280;65197;50.164;8.012;2023-04-02T06:44:26;95129.66;;;4.25;100.00
76374;BME280;65197;50.164;8.012;2023-04-02T06:46:57;95130.56;;;4.23;100.00
76374;BME280;65197;50.164;8.012;2023-04-02T06:49:39;95132.59;;;4.12;100.00
76374;BME280;65197;50.164;8.012;2023-04-02T06:52:20;95141.94;;;4.08;100.00
76374;BME280;65197;50.164;8.012;2023-04-02T06:54:47;95149.53;;;4.06;100.00
76374;BME280;65197;50.164;8.012;2023-04-02T06:57:12;95163.28;;;3.96;100.00
76374;BME280;65197;50.164;8.012;2023-04-02T06:59:38;95162.78;;;3.85;100.00
76374;BME280;65197;50.164;8.012;2023-04-02T07:02:22;95164.41;;;3.86;100.00
76374;BME280;65197;50.164;8.012;2023-04-02T07:04:50;95158.69;;;3.81;100.00
76374;BME280;65197;50.164;8.012;2023-04-02T07:07:15;95171.28;;;3.81;100.00
76374;BME280;65197;50.164;8.012;2023-04-02T07:09:41;95182.06;;;3.86;100.00
76374;BME280;65197;50.164;8.012;2023-04-02T07:12:11;95183.81;;;3.84;100.00
76374;BME280;65197;50.164;8.012;2023-04-02T07:14:36;95197.03;;;3.92;100.00
76374;BME280;65197;50.164;8.012;2023-04-02T07:17:01;95190.13;;;3.99;100.00
76374;BME280;65197;50.164;8.012;2023-04-02T07:19:27;95198.78;;;3.90;100.00
76374;BME280;65197;50.164;8.012;2023-04-02T07:21:52;95198.69;;;3.93;100.00
76374;BME280;65197;50.164;8.012;2023-04-02T07:24:17;95212.91;;;3.96;100.00
76374;BME280;65197;50.164;8.012;2023-04-02T07:26:43;95215.56;;;3.91;100.00
76374;BME280;65197;50.164;8.012;2023-04-02T07:29:13;95207.28;;;3.86;100.00
76374;BME280;65197;50.164;8.012;2023-04-02T07:31:40;95210.69;;;3.85;100.00
76374;BME280;65197;50.164;8.012;2023-04-02T07:34:06;95229.69;;;3.97;100.00
76374;BME280;65197;50.164;8.012;2023-04-02T07:36:32;95243.38;;;3.88;100.00
76374;BME280;65197;50.164;8.012;2023-04-02T07:38:58;95237.63;;;3.85;100.00
76374;BME280;65197;50.164;8.012;2023-04-02T07:41:23;95246.94;;;3.81;100.00
76374;BME280;65197;50.164;8.012;2023-04-02T07:43:48;95238.03;;;3.68;100.00
76374;BME280;65197;50.164;8.012;2023-04-02T07:46:14;95265.00;;;3.66;100.00
76374;BME280;65197;50.164;8.012;2023-04-02T07:48:43;95257.94;;;3.46;100.00
76374;BME280;65197;50.164;8.012;2023-04-02T07:53:44;95253.94;;;3.37;100.00
76374;BME280;65197;50.164;8.012;2023-04-02T07:56:15;95282.84;;;3.58;100.00
76374;BME280;65197;50.164;8.012;2023-04-02T07:58:40;95287.06;;;3.57;100.00
76374;BME280;65197;50.164;8.012;2023-04-02T08:01:14;95280.44;;;3.53;100.00
76374;BME280;65197;50.164;8.012;2023-04-02T08:03:41;95277.13;;;3.51;100.00
76374;BME280;65197;50.164;8.012;2023-04-02T08:06:07;95295.22;;;3.67;100.00
76374;BME280;65197;50.164;8.012;2023-04-02T08:08:32;95296.09;;;3.65;100.00
76374;BME280;65197;50.164;8.012;2023-04-02T08:10:57;95295.34;;;3.63;100.00
76374;BME280;65197;50.164;8.012;2023-04-02T08:13:23;95304.72;;;3.57;100.00
76374;BME280;65197;50.164;8.012;2023-04-02T08:15:48;95302.38;;;3.50;100.00
76374;BME280;65197;50.164;8.012;2023-04-02T08:18:14;95302.41;;;3.48;100.00
76374;BME280;65197;50.164;8.012;2023-04-02T08:20:39;95319.66;;;3.64;100.00
76374;BME280;65197;50.164;8.012;2023-04-02T08:23:11;95305.66;;;3.53;100.00
76374;BME280;65197;50.164;8.012;2023-04-02T08:25:37;95315.88;;;3.47;100.00
76374;BME280;65197;50.164;8.012;2023-04-02T08:28:02;95326.69;;;3.51;100.00
76374;BME280;65197;50.164;8.012;2023-04-02T08:30:28;95337.41;;;3.61;100.00
76374;BME280;65197;50.164;8.012;2023-04-02T08:32:53;95324.16;;;3.52;100.00
76374;BME280;65197;50.164;8.012;2023-04-02T08:35:19;95345.25;;;3.48;100.00
76374;BME280;65197;50.164;8.012;2023-04-02T08:37:44;95349.38;;;3.51;100.00
76374;BME280;65197;50.164;8.012;2023-04-02T08:40:19;95351.44;;;3.35;100.00
76374;BME280;65197;50.164;8.012;2023-04-02T08:45:41;95380.03;;;3.34;100.00
76374;BME280;65197;50.164;8.012;2023-04-02T08:48:11;95380.25;;;3.25;100.00
76374;BME280;65197;50.164;8.012;2023-04-02T08:50:40;95380.50;;;3.13;100.00
76374;BME280;65197;50.164;8.012;2023-04-02T08:53:14;95378.78;;;3.15;100.00
76374;BME280;65197;50.164;8.012;2023-04-02T08:55:47;95394.59;;;3.21;100.00
76374;BME280;65197;50.164;8.012;2023-04-02T09:04:20;95403.72;;;3.27;100.00
76374;BME280;65197;50.164;8.012;2023-04-02T09:06:48;95398.94;;;3.15;100.00
76374;BME280;65197;50.164;8.012;2023-04-02T09:09:18;95412.34;;;3.17;100.00
76374;BME280;65197;50.164;8.012;2023-04-02T09:11:52;95410.59;;;3.19;100.00
76374;BME280;65197;50.164;8.012;2023-04-02T09:14:32;95415.97;;;3.03;100.00
76374;BME280;65197;50.164;8.012;2023-04-02T09:17:01;95424.94;;;3.17;100.00
76374;BME280;65197;50.164;8.012;2023-04-02T09:19:39;95429.44;;;3.02;100.00
76374;BME280;65197;50.164;8.012;2023-04-02T09:22:29;95449.25;;;3.18;100.00
76374;BME280;65197;50.164;8.012;2023-04-02T09:25:00;95437.78;;;3.04;100.00
76374;BME280;65197;50.164;8.012;2023-04-02T09:27:29;95453.16;;;2.92;100.00
76374;BME280;65197;50.164;8.012;2023-04-02T09:35:20;95461.75;;;2.82;100.00
76374;BME280;65197;50.164;8.012;2023-04-02T09:37:46;95458.47;;;2.77;100.00
76374;BME280;65197;50.164;8.012;2023-04-02T09:40:23;95472.56;;;2.86;100.00
76374;BME280;65197;50.164;8.012;2023-04-02T09:45:28;95466.84;;;2.79;100.00
76374;BME280;65197;50.164;8.012;2023-04-02T09:47:54;95464.63;;;2.62;100.00
76374;BME280;65197;50.164;8.012;2023-04-02T09:50:27;95487.19;;;2.67;100.00
76374;BME280;65197;50.164;8.012;2023-04-02T09:52:53;95474.97;;;2.47;100.00
76374;BME280;65197;50.164;8.012;2023-04-02T09:55:27;95469.03;;;2.49;100.00
76374;BME280;65197;50.164;8.012;2023-04-02T09:58:13;95500.59;;;2.67;100.00
76374;BME280;65197;50.164;8.012;2023-04-02T10:00:48;95494.66;;;2.73;100.00
76374;BME280;65197;50.164;8.012;2023-04-02T10:03:23;95499.91;;;2.61;100.00
76374;BME280;65197;50.164;8.012;2023-04-02T10:06:10;95512.59;;;2.54;100.00
76374;BME280;65197;50.164;8.012;2023-04-02T10:08:38;95508.41;;;2.53;100.00
76374;BME280;65197;50.164;8.012;2023-04-02T10:11:13;95514.41;;;2.46;100.00
76374;BME280;65197;50.164;8.012;2023-04-02T10:13:50;95514.44;;;2.43;100.00
76374;BME280;65197;50.164;8.012;2023-04-02T10:16:33;95521.06;;;2.50;100.00
76374;BME280;65197;50.164;8.012;2023-04-02T10:21:41;95537.66;;;2.61;100.00
76374;BME280;65197;50.164;8.012;2023-04-02T10:24:12;95532.19;;;2.36;100.00
76374;BME280;65197;50.164;8.012;2023-04-02T10:26:47;95519.56;;;2.39;100.00
76374;BME280;65197;50.164;8.012;2023-04-02T10:29:33;95534.63;;;2.40;100.00
76374;BME280;65197;50.164;8.012;2023-04-02T10:32:11;95540.47;;;2.42;100.00
76374;BME280;65197;50.164;8.012;2023-04-02T10:35:00;95560.31;;;2.61;100.00
76374;BME280;65197;50.164;8.012;2023-04-02T10:40:20;95557.94;;;2.51;100.00
76374;BME280;65197;50.164;8.012;2023-04-02T10:50:50;95579.44;;;2.71;100.00
76374;BME280;65197;50.164;8.012;2023-04-02T10:53:29;95590.09;;;2.85;100.00
76374;BME280;65197;50.164;8.012;2023-04-02T10:55:59;95582.72;;;2.76;100.00
76374;BME280;65197;50.164;8.012;2023-04-02T10:58:30;95582.00;;;2.68;100.00
76374;BME280;65197;50.164;8.012;2023-04-02T11:01:02;95589.34;;;2.80;100.00
76374;BME280;65197;50.164;8.012;2023-04-02T11:03:36;95597.56;;;2.91;100.00
76374;BME280;65197;50.164;8.012;2023-04-02T11:06:25;95595.72;;;2.99;100.00
76374;BME280;65197;50.164;8.012;2023-04-02T11:08:57;95594.19;;;2.92;100.00
76374;BME280;65197;50.164;8.012;2023-04-02T11:11:42;95592.53;;;2.91;100.00
76374;BME280;65197;50.164;8.012;2023-04-02T11:14:27;95607.06;;;2.75;100.00
76374;BME280;65197;50.164;8.012;2023-04-02T11:16:54;95615.69;;;2.61;100.00
76374;BME280;65197;50.164;8.012;2023-04-02T11:19:29;95625.88;;;2.54;100.00
76374;BME280;65197;50.164;8.012;2023-04-02T11:21:59;95641.19;;;2.39;100.00
76374;BME280;65197;50.164;8.012;2023-04-02T11:27:14;95643.69;;;2.39;100.00
76374;BME280;65197;50.164;8.012;2023-04-02T11:30:30;95645.34;;;2.40;100.00
76374;BME280;65197;50.164;8.012;2023-04-02T11:32:33;95647.81;;;2.46;100.00
76374;BME280;65197;50.164;8.012;2023-04-02T11:40:47;95656.38;;;2.33;100.00
76374;BME280;65197;50.164;8.012;2023-04-02T11:46:42;95672.50;;;2.20;100.00
76374;BME280;65197;50.164;8.012;2023-04-02T11:48:43;95667.56;;;2.14;100.00
76374;BME280;65197;50.164;8.012;2023-04-02T11:53:56;95667.66;;;2.04;100.00
76374;BME280;65197;50.164;8.012;2023-04-02T11:59:37;95690.13;;;2.18;100.00
76374;BME280;65197;50.164;8.012;2023-04-02T12:02:32;95692.72;;;2.14;100.00
76374;BME280;65197;50.164;8.012;2023-04-02T12:05:25;95706.13;;;2.13;100.00
76374;BME280;65197;50.164;8.012;2023-04-02T12:08:22;95707.69;;;2.23;100.00
76374;BME280;65197;50.164;8.012;2023-04-02T12:10:54;95709.34;;;2.24;100.00
76374;BME280;65197;50.164;8.012;2023-04-02T12:16:09;95717.00;;;2.15;100.00
76374;BME280;65197;50.164;8.012;2023-04-02T12:18:41;95711.09;;;2.19;100.00
76374;BME280;65197;50.164;8.012;2023-04-02T12:21:07;95707.75;;;2.18;100.00
76374;BME280;65197;50.164;8.012;2023-04-02T12:23:38;95716.84;;;2.27;100.00
76374;BME280;65197;50.164;8.012;2023-04-02T12:26:06;95732.72;;;2.32;100.00
76374;BME280;65197;50.164;8.012;2023-04-02T12:28:33;95717.03;;;2.12;100.00
76374;BME280;65197;50.164;8.012;2023-04-02T12:31:04;95738.72;;;2.20;100.00
76374;BME280;65197;50.164;8.012;2023-04-02T12:33:36;95751.13;;;2.34;100.00
76374;BME280;65197;50.164;8.012;2023-04-02T12:36:05;95748.06;;;2.14;100.00
76374;BME280;65197;50.164;8.012;2023-04-02T12:38:35;95743.22;;;1.95;100.00
76374;BME280;65197;50.164;8.012;2023-04-02T12:41:05;95761.50;;;2.10;100.00
76374;BME280;65197;50.164;8.012;2023-04-02T12:43:42;95739.88;;;1.93;100.00
76374;BME280;65197;50.164;8.012;2023-04-02T12:46:08;95771.53;;;2.13;100.00
76374;BME280;65197;50.164;8.012;2023-04-02T12:48:34;95768.19;;;2.11;100.00
76374;BME280;65197;50.164;8.012;2023-04-02T12:51:01;95759.00;;;2.10;100.00
76374;BME280;65197;50.164;8.012;2023-04-02T12:53:37;95784.81;;;2.24;100.00
76374;BME280;65197;50.164;8.012;2023-04-02T12:56:03;95773.00;;;2.32;100.00
76374;BME280;65197;50.164;8.012;2023-04-02T12:58:40;95760.53;;;2.20;100.00
76374;BME280;65197;50.164;8.012;2023-04-02T13:01:11;95777.31;;;2.19;100.00
76374;BME280;65197;50.164;8.012;2023-04-02T13:03:37;95754.03;;;2.02;100.00
76374;BME280;65197;50.164;8.012;2023-04-02T13:06:20;95791.50;;;2.25;100.00
76374;BME280;65197;50.164;8.012;2023-04-02T13:08:46;95786.53;;;2.22;100.00
76374;BME280;65197;50.164;8.012;2023-04-02T13:11:12;95788.13;;;2.26;100.00
76374;BME280;65197;50.164;8.012;2023-04-02T13:13:39;95788.34;;;2.08;100.00
76374;BME280;65197;50.164;8.012;2023-04-02T13:18:39;95793.34;;;2.11;100.00
76374;BME280;65197;50.164;8.012;2023-04-02T13:23:40;95787.97;;;2.41;100.00
76374;BME280;65197;50.164;8.012;2023-04-02T13:26:17;95799.84;;;2.30;100.00
76374;BME280;65197;50.164;8.012;2023-04-02T13:29:23;95795.53;;;2.41;100.00
76374;BME280;65197;50.164;8.012;2023-04-02T13:31:49;95791.31;;;2.40;100.00
76374;BME280;65197;50.164;8.012;2023-04-02T13:34:15;95783.16;;;2.23;100.00
76374;BME280;65197;50.164;8.012;2023-04-02T13:36:42;95802.47;;;2.19;100.00
76374;BME280;65197;50.164;8.012;2023-04-02T13:39:07;95811.78;;;2.13;100.00
76374;BME280;65197;50.164;8.012;2023-04-02T13:41:38;95816.81;;;2.13;100.00
76374;BME280;65197;50.164;8.012;2023-04-02T13:44:04;95826.91;;;2.10;100.00
76374;BME280;65197;50.164;8.012;2023-04-02T13:46:32;95818.72;;;1.89;100.00
76374;BME280;65197;50.164;8.012;2023-04-02T13:48:58;95825.38;;;1.96;100.00
76374;BME280;65197;50.164;8.012;2023-04-02T13:51:38;95813.78;;;1.80;100.00
76374;BME280;65197;50.164;8.012;2023-04-02T13:54:17;95822.97;;;1.86;100.00
76374;BME280;65197;50.164;8.012;2023-04-02T13:56:44;95836.28;;;1.94;100.00
76374;BME280;65197;50.164;8.012;2023-04-02T13:59:11;95823.75;;;1.89;100.00
76374;BME280;65197;50.164;8.012;2023-04-02T14:01:37;95830.47;;;1.87;100.00
76374;BME280;65197;50.164;8.012;2023-04-02T14:04:03;95838.69;;;2.04;100.00
76374;BME280;65197;50.164;8.012;2023-04-02T14:09:31;95847.84;;;2.13;100.00
76374;BME280;65197;50.164;8.012;2023-04-02T14:15:18;95858.75;;;2.14;100.00
76374;BME280;65197;50.164;8.012;2023-04-02T14:29:33;95879.81;;;2.00;100.00
76374;BME280;65197;50.164;8.012;2023-04-02T14:32:06;95885.75;;;1.93;100.00
76374;BME280;65197;50.164;8.012;2023-04-02T14:37:40;95892.38;;;2.02;100.00
76374;BME280;65197;50.164;8.012;2023-04-02T14:40:16;95874.84;;;1.94;100.00
76374;BME280;65197;50.164;8.012;2023-04-02T14:42:52;95892.31;;;2.07;100.00
76374;BME280;65197;50.164;8.012;2023-04-02T14:50:42;95898.34;;;1.90;100.00
76374;BME280;65197;50.164;8.012;2023-04-02T14:53:13;95905.03;;;1.94;100.00
76374;BME280;65197;50.164;8.012;2023-04-02T14:55:43;95908.38;;;1.95;100.00
76374;BME280;65197;50.164;8.012;2023-04-02T14:58:24;95910.13;;;1.87;100.00
76374;BME280;65197;50.164;8.012;2023-04-02T15:01:00;95903.47;;;1.81;100.00
76374;BME280;65197;50.164;8.012;2023-04-02T15:03:34;95901.81;;;1.77;100.00
76374;BME280;65197;50.164;8.012;2023-04-02T15:06:04;95913.47;;;1.84;100.00
76374;BME280;65197;50.164;8.012;2023-04-02T15:08:44;95891.78;;;1.71;100.00
76374;BME280;65197;50.164;8.012;2023-04-02T15:11:38;95924.41;;;1.80;100.00
76374;BME280;65197;50.164;8.012;2023-04-02T15:16:46;95926.06;;;1.84;100.00
76374;BME280;65197;50.164;8.012;2023-04-02T15:19:17;95932.03;;;1.72;100.00
76374;BME280;65197;50.164;8.012;2023-04-02T15:28:06;95933.75;;;1.61;100.00
76374;BME280;65197;50.164;8.012;2023-04-02T15:30:38;95934.56;;;1.68;100.00
76374;BME280;65197;50.164;8.012;2023-04-02T15:33:43;95947.94;;;1.73;100.00
76374;BME280;65197;50.164;8.012;2023-04-02T15:50:36;95977.50;;;1.36;100.00
76374;BME280;65197;50.164;8.012;2023-04-02T15:55:44;95984.25;;;1.20;100.00
76374;BME280;65197;50.164;8.012;2023-04-02T16:01:16;95990.19;;;1.04;100.00
76374;BME280;65197;50.164;8.012;2023-04-02T16:12:20;95999.38;;;1.09;100.00
76374;BME280;65197;50.164;8.012;2023-04-02T16:14:47;96011.91;;;1.14;100.00
76374;BME280;65197;50.164;8.012;2023-04-02T16:17:36;96016.13;;;1.09;100.00
76374;BME280;65197;50.164;8.012;2023-04-02T16:20:23;96021.13;;;1.13;100.00